Flight Track Log - Related Links

Times and Time Zones

All times are in EDT time to prevent confusion due to time zone crossing. See the GJS3707 flight status page for this flight to view local times or setup timezone preferences in your user account.

Time Position Orientation Groundspeed Altitude Reporting Facility
EDT Latitude Longitude Course Direction KTS MPH feet Rate Location/Type
Sat 03:07:51 PM 43.6203 -116.3461 311° West 224 258 6,000  Level Salt Lake Center
Sat 03:08:53 PM 43.6725 -116.2844 40° Northeast 266 306 7,600 1,790 Climbing Salt Lake Center
Sat 03:09:00 PM 43.6495 -115.5547 82° East  Level FlightAware Approximate
Sat 03:09:55 PM 43.7206 -116.1817 57° Northeast 293 337 9,700  Level Salt Lake Center
Sat 03:10:00 PM 43.6716 -115.3896 81° East  Level FlightAware Approximate
Sat 03:10:56 PM 43.7336 -116.0689 81° East 312 359 11,100  Level Salt Lake Center
Sat 03:11:00 PM 43.7009 -115.2252 81° East  Level FlightAware Approximate
Sat 03:11:58 PM 43.7500 -115.9172 81° East 355 409 12,700  Level Salt Lake Center
Sat 03:12:00 PM 43.7198 -115.0564 81° East  Level FlightAware Approximate
Sat 03:13:00 PM 43.7644 -115.7819 82° East 371 427 14,600  Level Salt Lake Center
Sat 03:14:02 PM 43.7811 -115.6206 82° East 381 438 16,300 1,548 Climbing Salt Lake Center
Sat 03:15:04 PM 43.7958 -115.4761 82° East 394 453 17,800 1,597 Climbing Salt Lake Center
Sat 03:16:06 PM 43.8150 -115.3008 81° East 409 471 19,600 1,548 Climbing Salt Lake Center
Sat 03:17:08 PM 43.8306 -115.1458 82° East 422 486 21,000 1,463 Climbing Salt Lake Center
Sat 03:18:09 PM 43.8489 -114.9622 82° East 434 499 22,600 1,415 Climbing Salt Lake Center
Sat 03:19:11 PM 43.8650 -114.8019 82° East 439 505 23,900 1,258 Climbing Salt Lake Center
Sat 03:20:13 PM 43.8842 -114.6119 82° East 448 516 25,200 1,065 Climbing Salt Lake Center
Sat 03:21:15 PM 43.8994 -114.4461 83° East 454 522 26,100 1,065 Climbing Salt Lake Center
Sat 03:22:17 PM 43.9192 -114.2492 82° East 461 531 27,400 968 Climbing Salt Lake Center
Sat 03:23:19 PM 43.9353 -114.0778 83° East 469 540 28,100 629 Climbing Salt Lake Center
Sat 03:24:21 PM 43.9531 -113.8867 83° East 482 555 28,700 780 Climbing Salt Lake Center
Sat 03:25:22 PM 43.9686 -113.7081 83° East 487 560 29,700 1,024 Climbing Salt Lake Center
Sat 03:26:24 PM 43.9847 -113.4994 84° East 487 560 30,800 1,016 Climbing Salt Lake Center
Sat 03:27:26 PM 44.0022 -113.3219 82° East 486 559 31,800 919 Climbing Salt Lake Center
Sat 03:28:28 PM 44.0742 -113.1367 62° Northeast 485 558 32,700 774 Climbing Salt Lake Center
Sat 03:29:30 PM 44.1333 -112.9764 63° Northeast 486 559 33,400 581 Climbing Salt Lake Center
Sat 03:30:32 PM 44.2178 -112.7961 57° Northeast 498 573 33,900 488 Climbing Salt Lake Center
Sat 03:31:33 PM 44.2922 -112.6400 56° Northeast 503 579 34,400 537 Climbing Salt Lake Center
Sat 03:32:35 PM 44.3650 -112.4803 57° Northeast 509 586 35,000 677 Climbing Salt Lake Center
Sat 03:33:37 PM 44.4094 -112.2736 73° East 504 580 35,800 677 Climbing Salt Lake Center
Sat 03:34:39 PM 44.4092 -112.0892 90° East 497 572 36,400 581 Climbing Salt Lake Center
Sat 03:35:41 PM 44.3986 -111.8775 94° East 492 566 37,000 293 Climbing Salt Lake Center
Sat 03:36:42 PM 44.3889 -111.6956 94° East 494 568 37,000  Level Salt Lake Center
Sat 03:37:44 PM 44.3775 -111.4806 94° East 502 578 37,000  Level Salt Lake Center
Sat 03:38:46 PM 44.3683 -111.2961 94° East 506 582 37,000  Level Salt Lake Center
Sat 03:39:48 PM 44.3564 -111.0797 94° East 504 580 37,000  Level Salt Lake Center
Sat 03:40:49 PM 44.3456 -110.8942 95° East 505 581 37,000  Level Salt Lake Center
Sat 03:41:51 PM 44.3322 -110.6772 95° East 505 581 37,000  Level Salt Lake Center
Sat 03:42:53 PM 44.3203 -110.4903 95° East 506 582 37,000  Level Salt Lake Center
Sat 03:43:55 PM 44.3081 -110.2714 94° East 506 582 37,000  Level Salt Lake Center
Sat 03:44:56 PM 44.2972 -110.0853 95° East 503 579 37,000 49 Level Salt Lake Center
Sat 03:45:58 PM 44.2831 -109.8672 95° East 506 582 37,100 339 Climbing Salt Lake Center
Sat 03:47:00 PM 44.2700 -109.6833 96° East 501 577 37,700 537 Climbing Salt Lake Center
Sat 03:48:01 PM 44.2567 -109.5019 96° East 495 570 38,200 488 Climbing Salt Lake Center
Sat 03:49:03 PM 44.2414 -109.2972 96° East 489 563 38,700 387 Climbing Salt Lake Center
Sat 03:50:05 PM 44.2278 -109.1131 96° East 482 555 39,000 146 Climbing Salt Lake Center
Sat 03:51:06 PM 44.2144 -108.9275 96° East 483 556 39,000  Level Salt Lake Center
Sat 03:52:08 PM 44.2000 -108.7417 96° East 485 558 39,000  Level Salt Lake Center
Sat 03:53:10 PM 44.1833 -108.5178 96° East 488 562 39,000  Level Salt Lake Center
Sat 03:54:13 PM 44.1678 -108.3311 97° East 488 562 39,000  Level Salt Lake Center
Sat 03:55:13 PM 44.1517 -108.1442 97° East 491 565 39,000  Level Salt Lake Center
Sat 03:56:15 PM 44.1367 -107.9572 96° East 491 565 39,000  Level Salt Lake Center
Sat 03:57:16 PM 44.1208 -107.7717 97° East 488 562 39,000  Level Salt Lake Center
Sat 03:58:18 PM 44.1039 -107.5811 97° East 497 572 39,000  Level Salt Lake Center
Sat 03:59:19 PM 44.0844 -107.3528 97° East 500 575 39,000  Level Salt Lake Center
Sat 04:00:21 PM 44.0672 -107.1611 97° East 501 577 39,000  Level Salt Lake Center
Sat 04:01:14 PM 44.0539 -107.0075 97° East 500 575 39,000  Level Denver Center
Sat 04:02:16 PM 44.0350 -106.8025 97° East 506 582 39,000  Level Denver Center
Sat 04:03:17 PM 44.0150 -106.5875 97° East 504 580 39,000  Level Denver Center
Sat 04:04:19 PM 44.0003 -106.4014 96° East 507 583 39,000  Level Denver Center
Sat 04:05:21 PM 44.0028 -106.2122 89° East 508 585 39,000  Level Denver Center
Sat 04:06:23 PM 44.0033 -105.9925 90° East 509 586 39,000  Level Denver Center
Sat 04:07:24 PM 44.0039 -105.8031 90° East 511 588 39,000  Level Denver Center
Sat 04:08:26 PM 43.9889 -105.5858 95° East 509 586 39,000  Level Denver Center
Sat 04:09:28 PM 43.9747 -105.3994 96° East 507 583 39,000  Level Denver Center
Sat 04:10:30 PM 43.9550 -105.1822 97° East 508 585 39,000  Level Denver Center
Sat 04:11:32 PM 43.9372 -104.9958 97° East 509 586 39,000  Level Denver Center
Sat 04:12:33 PM 43.9139 -104.8156 100° East 502 578 39,000  Level Denver Center
Sat 04:13:35 PM 43.8828 -104.6053 102° East 499 574 39,000  Level Denver Center
Sat 04:14:36 PM 43.8558 -104.4292 102° East 491 565 39,000  Level Denver Center
Sat 04:15:38 PM 43.8239 -104.2214 102° East 490 564 39,000  Level Denver Center
Sat 04:16:40 PM 43.7969 -104.0461 102° East 487 560 39,000  Level Denver Center
Sat 04:17:42 PM 43.7697 -103.8703 102° East 486 559 39,000  Level Denver Center
Sat 04:18:43 PM 43.7372 -103.6669 102° East 484 557 39,000  Level Denver Center
Sat 04:19:45 PM 43.7089 -103.4925 103° East 483 556 39,000  Level Denver Center
Sat 04:20:47 PM 43.6761 -103.2900 103° East 483 556 39,000  Level Denver Center
Sat 04:21:48 PM 43.6481 -103.1158 102° East 485 558 39,000  Level Denver Center
Sat 04:22:50 PM 43.6169 -102.9122 102° East 485 558 39,000  Level Denver Center
Sat 04:23:52 PM 43.6061 -102.7347 95° East 486 559 39,000  Level Denver Center
Sat 04:24:53 PM 43.6025 -102.5575 92° East 485 558 39,000  Level Denver Center
Sat 04:25:55 PM 43.6106 -102.3525 87° East 483 556 39,000  Level Denver Center
Sat 04:26:57 PM 43.6169 -102.1750 87° East 484 557 39,000  Level Denver Center
Sat 04:27:58 PM 43.6206 -101.9867 88° East 485 558 39,000  Level Denver Center
Sat 04:29:00 PM 43.6261 -101.8006 88° East 488 562 39,000  Level Denver Center
Sat 04:30:02 PM 43.6300 -101.6150 88° East 487 560 39,000  Level Denver Center
Sat 04:31:03 PM 43.6367 -101.3900 88° East 490 564 39,000  Level Denver Center
Sat 04:32:05 PM 43.6408 -101.2039 88° East 489 563 39,000  Level Denver Center
Sat 04:33:07 PM 43.6436 -101.0153 89° East 492 566 39,000  Level Denver Center
Sat 04:34:08 PM 43.6469 -100.8267 89° East 494 568 39,000  Level Denver Center
Sat 04:35:10 PM 43.6381 -100.6392 94° East 494 568 39,000  Level Denver Center
Sat 04:36:11 PM 43.6153 -100.4578 100° East 484 557 39,000  Level Denver Center
Sat 04:37:13 PM 43.5900 -100.2708 101° East 493 567 39,000  Level Denver Center
Sat 04:38:14 PM 43.5647 -100.0842 101° East 497 572 39,000  Level Denver Center
Sat 04:39:16 PM 43.5342 -99.8625 101° East 494 568 39,000  Level Denver Center
Sat 04:40:17 PM 43.5078 -99.6761 101° East 496 571 39,000  Level Denver Center
Sat 04:41:19 PM 43.4819 -99.4894 101° East 498 573 39,000  Level Denver Center
Sat 04:42:59 PM 43.4444 -99.2322 101° East 495 570 39,000  Level Minneapolis Center
Sat 04:44:02 PM 43.4122 -99.0103 101° East 495 570 39,000  Level Minneapolis Center
Sat 04:45:16 PM 43.3822 -98.8033 101° East 495 570 39,000  Level Minneapolis Center
Sat 04:46:18 PM 43.3572 -98.5808 99° East 493 567 39,000  Level Minneapolis Center
Sat 04:47:20 PM 43.3389 -98.3931 98° East 498 573 39,000  Level Minneapolis Center
Sat 04:48:22 PM 43.3167 -98.1697 98° East 493 567 39,000  Level Minneapolis Center
Sat 04:49:36 PM 43.2978 -97.9850 98° East 493 567 39,000  Level Minneapolis Center
Sat 04:50:38 PM 43.2750 -97.7656 98° East 486 559 39,000  Level Minneapolis Center
Sat 04:51:40 PM 43.2547 -97.5808 99° East 490 564 39,000  Level Minneapolis Center
Sat 04:52:54 PM 43.2353 -97.3975 98° East 489 563 39,000  Level Minneapolis Center
Sat 04:53:56 PM 43.2111 -97.1789 99° East 487 560 39,000  Level Minneapolis Center
Sat 04:54:58 PM 43.1869 -96.9608 99° East 486 559 39,000  Level Minneapolis Center
Sat 04:56:00 PM 43.1661 -96.7797 99° East 487 560 39,000  Level Minneapolis Center
Sat 04:57:02 PM 43.1456 -96.6006 99° East 481 554 39,000  Level Minneapolis Center
Sat 04:58:04 PM 43.1250 -96.4222 99° East 478 550 39,000  Level Minneapolis Center
Sat 04:59:06 PM 43.1033 -96.2433 99° East 479 551 39,000  Level Minneapolis Center
Sat 05:00:08 PM 43.0778 -96.0289 99° East 480 552 39,000  Level Minneapolis Center
Sat 05:01:10 PM 43.0561 -95.8511 99° East 479 551 39,000  Level Minneapolis Center
Sat 05:02:12 PM 43.0342 -95.6731 100° East 479 551 39,000  Level Minneapolis Center
Sat 05:03:14 PM 43.0117 -95.4950 100° East 480 552 39,000  Level Minneapolis Center
Sat 05:04:15 PM 42.9892 -95.3178 100° East 477 549 39,000  Level Minneapolis Center
Sat 05:05:17 PM 42.9664 -95.1414 100° East 475 547 39,000  Level Minneapolis Center
Sat 05:06:19 PM 42.9436 -94.9644 100° East 475 547 39,000  Level Minneapolis Center
Sat 05:07:21 PM 42.9156 -94.7547 100° East 473 544 39,000  Level Minneapolis Center
Sat 05:08:23 PM 42.8939 -94.5869 100° East 466 536 39,000  Level Minneapolis Center
Sat 05:09:24 PM 42.8742 -94.4400 100° East 450 518 39,000  Level Minneapolis Center
Sat 05:10:26 PM 42.8478 -94.2450 100° East 441 507 39,000  Level Minneapolis Center
Sat 05:11:28 PM 42.8233 -94.0817 101° East 444 511 39,000  Level Minneapolis Center
Sat 05:12:30 PM 42.8006 -93.9186 101° East 442 509 39,000  Level Minneapolis Center
Sat 05:13:32 PM 42.7772 -93.7542 101° East 446 513 39,000  Level Minneapolis Center
Sat 05:14:33 PM 42.7542 -93.5911 101° East 445 512 39,000  Level Minneapolis Center
Sat 05:15:35 PM 42.7258 -93.3956 101° East 444 511 39,000  Level Minneapolis Center
Sat 05:16:37 PM 42.7022 -93.2311 101° East 446 513 39,000  Level Minneapolis Center
Sat 05:17:21 PM 42.6819 -93.1006 102° East 444 511 39,000  Level Chicago Center
Sat 05:18:23 PM 42.6700 -92.9372 96° East 439 505 39,000 -290 Level Chicago Center
Sat 05:19:25 PM 42.6647 -92.7750 92° East 435 501 38,400 -774 Descending Chicago Center
Sat 05:20:27 PM 42.6583 -92.6114 93° East 437 503 37,400 -976 Descending Chicago Center
Sat 05:21:28 PM 42.6525 -92.4469 93° East 441 507 36,400 -1,073 Descending Chicago Center
Sat 05:22:30 PM 42.6439 -92.2453 93° East 449 517 35,200 -1,065 Descending Chicago Center
Sat 05:23:32 PM 42.6367 -92.0858 93° East 435 501 34,200 -968 Descending Chicago Center
Sat 05:24:34 PM 42.6306 -91.9261 93° East 432 497 33,200 -968 Descending Chicago Center
Sat 05:25:36 PM 42.6231 -91.7708 94° East 423 487 32,200 -927 Descending Chicago Center
Sat 05:26:37 PM 42.6164 -91.6231 93° East 407 468 31,300 -1,317 Descending Chicago Center
Sat 05:27:39 PM 42.6094 -91.4506 93° East 390 449 29,500 -1,452 Descending Chicago Center
Sat 05:28:41 PM 42.6033 -91.3097 93° East 382 440 28,300 -1,161 Descending Chicago Center
Sat 05:29:43 PM 42.5967 -91.1661 94° East 387 445 27,100 -1,171 Descending Chicago Center
Sat 05:30:44 PM 42.5886 -91.0197 94° East 394 453 25,900 -1,268 Descending Chicago Center
Sat 05:31:46 PM 42.5786 -90.8344 94° East 415 478 24,500 -919 Descending Chicago Center
Sat 05:32:48 PM 42.5706 -90.6758 94° East 424 488 24,000 -242 Descending Chicago Center
Sat 05:33:50 PM 42.5617 -90.5136 94° East 436 502 24,000  Level Chicago Center
Sat 05:34:52 PM 42.5514 -90.3542 95° East 432 497 24,000  Level Chicago Center
Sat 05:35:53 PM 42.5436 -90.1978 94° East 424 488 24,000  Level Chicago Center
Sat 05:36:55 PM 42.5328 -90.0031 94° East 436 502 24,000 -290 Level Chicago Center
Sat 05:37:57 PM 42.5214 -89.8369 95° East 438 504 23,400 -774 Descending Chicago Center
Sat 05:38:59 PM 42.5142 -89.6781 93° East 427 491 22,400 -1,268 Descending Chicago Center
Sat 05:40:00 PM 42.5131 -89.5222 91° East 419 482 20,800 -1,659 Descending Chicago Center
Sat 05:41:02 PM 42.5108 -89.3708 91° East 408 470 19,000 -1,694 Descending Chicago Center
Sat 05:42:04 PM 42.5092 -89.2233 91° East 395 455 17,300 -1,839 Descending Chicago Center
Sat 05:43:06 PM 42.5067 -89.0533 91° East 390 449 15,200 -1,694 Descending Chicago Center
Sat 05:44:08 PM 42.4992 -88.9169 94° East 370 426 13,800 -1,512 Descending Chicago Center
Sat 05:45:09 PM 42.4619 -88.7894 112° Southeast 367 422 12,100 -1,415 Descending Chicago Center
Sat 05:46:11 PM 42.4258 -88.6697 112° Southeast 346 398 10,900 -1,161 Descending Chicago Center
Sat 05:47:13 PM 42.3931 -88.5622 112° Southeast 317 365 9,700 -919 Descending Chicago Center
Sat 05:48:15 PM 42.3542 -88.4722 120° Southeast 288 331 9,000 -1,171 Descending Chicago Center
Sat 05:49:16 PM 42.3056 -88.3872 128° Southeast 279 321 7,300 -1,610 Descending Chicago Center
Sat 05:50:18 PM 42.2603 -88.3086 128° Southeast 271 312 5,700 -1,113 Descending Chicago Center
Sat 05:51:20 PM 42.2106 -88.2181 127° Southeast 253 291 5,000 -339 Descending Chicago Center
Sat 05:52:22 PM 42.1733 -88.1503 127° Southeast 232 267 5,000 -98 Level Chicago Center
Sat 05:53:23 PM 42.1289 -88.0892 134° Southeast 230 265 4,800 -197 Descending Chicago Center

Login

Don't have an account? Register now (free) for customized features, flight alerts, and more!